Flight Track Log - Related Links

Times and Time Zones

All times are in EDT time to prevent confusion due to time zone crossing. See the UAL3836 flight status page for this flight to view local times or setup timezone preferences in your user account.


Time Position Orientation Groundspeed Altitude Reporting Facility
EDT Latitude Longitude Course Direction KTS MPH feet Rate Location/Type
Tue 09:39:09 AM 41.9333 -87.9000 130° Southeast 165 190 2,200  Level Chicago TRACON
Tue 09:40:11 AM 41.8969 -87.8408 130° Southeast 207 238 3,800 1,632 Climbing Chicago Center
Tue 09:41:14 AM 41.8475 -87.7781 137° Southeast 243 280 5,600 2,226 Climbing Chicago Center
Tue 09:42:15 AM 41.7919 -87.7086 137° Southeast 252 290 8,400 2,129 Climbing Chicago Center
Tue 09:43:18 AM 41.7742 -87.6161 104° East 274 315 10,000 768 Climbing Chicago Center
Tue 09:44:20 AM 41.7758 -87.5044 89° East 280 322 10,000  Level Chicago Center
Tue 09:45:22 AM 41.7778 -87.4008 89° East 280 322 10,000  Level Chicago Center
Tue 09:46:24 AM 41.7800 -87.2900 88° East 278 320 10,000  Level Chicago Center
Tue 09:47:26 AM 41.7814 -87.1883 89° East 276 318 10,000  Level Chicago Center
Tue 09:48:29 AM 41.7844 -87.0744 88° East 284 327 10,000  Level Chicago Center
Tue 09:49:30 AM 41.7883 -86.9650 87° East 294 338 10,000  Level Chicago Center
Tue 09:50:33 AM 41.7922 -86.8464 87° East 295 339 10,000  Level Chicago Center
Tue 09:51:35 AM 41.7972 -86.7361 86° East 296 341 10,000 -48 Level Chicago Center
Tue 09:52:37 AM 41.7986 -86.6406 89° East 297 342 9,900 -677 Descending Chicago Center
Tue 09:53:39 AM 41.8047 -86.5194 86° East 269 310 8,600 -1,306 Descending Chicago Center
Tue 09:54:41 AM 41.8075 -86.4244 88° East 259 298 7,200 -1,452 Descending Chicago Center
Tue 09:55:43 AM 41.8111 -86.3317 87° East 255 293 5,600 -1,645 Descending Chicago Center
Tue 09:56:45 AM 41.8136 -86.2394 88° East 251 289 3,800 -1,548 Descending Chicago Center
Tue 09:57:47 AM 41.8158 -86.1506 88° East 248 285 2,400 -720 Descending Chicago Center
Tue 09:58:50 AM 41.7681 -86.1139 150° Southeast 218 251 2,300 -48 Descending Chicago Center
Tue 09:59:52 AM 41.7097 -86.1325 193° South 215 247 2,300 -97 Level Chicago Center
Tue 10:00:54 AM 41.7039 -86.2039 264° West 202 232 2,100 -484 Descending Chicago Center
Tue 10:01:56 AM 41.7042 -86.2603 270° West 171 197 1,300 -532 Descending Chicago Center
Tue 10:02:58 AM 41.7044 -86.3106 270° West 161 185 1,000 -290 Descending Chicago Center

Login

Don't have an account? Register now (free) for customized features, flight alerts, and more!